Time;durP1;ratioP1;P1;durP2;ratioP2;P2;SDS_P1;SDS_P2;PMS_P1;PMS_P2;Temp;Humidity;BMP_temperature;BMP_pressure;BME280_temperature;BME280_humidity;BME280_pressure;Samples;Min_cycle;Max_cycle;Signal;HPM_P1;HPM_P2
2024/02/09 00:00:17;;;;;;;3.23;2.10;;;2.40;99.90;2.20;98474.00;;;;4909752;28;93379;-69
2024/02/09 00:02:44;;;;;;;2.77;2.53;;;2.40;99.90;2.20;98460.00;;;;4899284;28;93987;-70
2024/02/09 00:05:14;;;;;;;2.10;1.90;;;2.40;99.90;2.20;98466.00;;;;4897349;28;92930;-69
2024/02/09 00:07:45;;;;;;;3.53;2.60;;;2.40;99.90;2.10;98477.00;;;;4894941;28;99589;-68
2024/02/09 00:10:12;;;;;;;3.60;2.00;;;2.50;99.90;2.10;98461.00;;;;4897027;28;92906;-69
2024/02/09 00:12:40;;;;;;;2.00;1.50;;;2.50;99.90;2.20;98458.00;;;;4876132;28;95191;-67
2024/02/09 00:15:07;;;;;;;3.07;1.97;;;2.40;99.90;2.10;98454.00;;;;4898472;28;93048;-67
2024/02/09 00:17:34;;;;;;;3.93;1.80;;;2.40;99.90;2.20;98466.00;;;;4893024;28;92942;-68
2024/02/09 00:20:01;;;;;;;4.10;2.23;;;2.40;99.90;2.20;98466.00;;;;4898229;28;93189;-68
2024/02/09 00:22:27;;;;;;;2.30;2.10;;;2.40;99.90;2.20;98478.00;;;;4895009;28;94817;-69
2024/02/09 00:24:52;;;;;;;2.57;1.97;;;2.30;99.90;2.20;98477.00;;;;4897068;28;98145;-69
2024/02/09 00:27:18;;;;;;;2.07;1.53;;;2.40;99.90;2.20;98488.00;;;;4898980;28;98569;-67
2024/02/09 00:29:44;;;;;;;1.90;1.80;;;2.40;99.90;2.20;98482.00;;;;4899219;28;92782;-68
2024/02/09 00:32:14;;;;;;;2.43;2.13;;;2.50;99.90;2.20;98460.00;;;;4906934;28;114611;-67
2024/02/09 00:34:39;;;;;;;3.60;2.40;;;2.50;99.90;2.20;98465.00;;;;4894566;28;93290;-68
2024/02/09 00:37:06;;;;;;;3.07;1.57;;;2.50;99.90;2.20;98460.00;;;;4895135;28;108176;-68
2024/02/09 00:39:35;;;;;;;3.83;1.97;;;1.70;99.90;2.20;98455.00;;;;4912950;28;92196;-68
2024/02/09 00:42:04;;;;;;;0.90;0.90;;;2.40;99.90;2.20;98445.00;;;;4898620;28;93356;-69
2024/02/09 00:44:31;;;;;;;2.70;1.87;;;3.10;99.90;2.20;98450.00;;;;4907974;28;94042;-69
2024/02/09 00:47:01;;;;;;;3.67;1.50;;;2.40;99.90;2.20;98448.00;;;;4898076;28;94071;-68
2024/02/09 00:49:27;;;;;;;1.67;1.23;;;2.50;99.90;2.20;98448.00;;;;4896246;28;95266;-69
2024/02/09 00:51:55;;;;;;;2.03;1.83;;;2.50;99.90;2.20;98443.00;;;;4901048;28;93147;-69
2024/02/09 00:54:24;;;;;;;2.83;1.97;;;2.40;99.90;2.20;98444.00;;;;4897206;28;93794;-69
2024/02/09 00:56:49;;;;;;;2.80;1.50;;;2.40;99.90;2.20;98438.00;;;;4892340;28;93788;-70
2024/02/09 00:59:18;;;;;;;1.33;1.23;;;2.50;99.90;2.20;98438.00;;;;4897661;28;108800;-68
2024/02/09 01:01:45;;;;;;;2.43;1.57;;;2.50;99.90;2.20;98442.00;;;;4900178;28;92996;-68
2024/02/09 01:04:12;;;;;;;1.50;1.33;;;2.40;99.90;2.20;98438.00;;;;4893525;28;93861;-69
2024/02/09 01:06:39;;;;;;;2.70;1.93;;;2.50;99.90;2.30;98444.00;;;;4891448;28;92975;-70
2024/02/09 01:09:08;;;;;;;3.03;2.03;;;2.50;99.90;2.30;98439.00;;;;4895167;28;93131;-68
2024/02/09 01:11:34;;;;;;;1.63;1.53;;;2.50;99.90;2.30;98436.00;;;;4897043;28;93961;-68
2024/02/09 02:46:57;;;;;;;2.67;2.20;;;3.50;99.90;2.50;98334.00;;;;4894379;28;108807;-70
2024/02/09 03:05:47;;;;;;;3.80;2.47;;;2.80;99.90;2.60;98306.00;;;;4896666;28;92881;-69
2024/02/09 03:08:13;;;;;;;3.77;2.87;;;2.80;99.90;2.60;98309.00;;;;4904552;28;107636;-69
2024/02/09 03:10:39;;;;;;;3.77;2.73;;;2.80;99.90;2.60;98316.00;;;;4890223;28;120314;-70
2024/02/09 03:13:07;;;;;;;4.53;2.90;;;2.70;99.90;2.60;98311.00;;;;4896366;28;122260;-70
2024/02/09 03:15:34;;;;;;;3.10;2.63;;;2.90;99.90;2.60;98313.00;;;;4892665;28;92745;-69
2024/02/09 03:18:02;;;;;;;4.27;2.67;;;2.80;99.90;2.60;98312.00;;;;4895401;28;92362;-69
2024/02/09 03:20:27;;;;;;;4.13;2.77;;;3.60;99.90;2.60;98314.00;;;;4894734;28;93568;-70
2024/02/09 03:22:53;;;;;;;3.80;2.77;;;2.80;99.90;2.60;98295.00;;;;4892546;28;123175;-68
2024/02/09 03:25:21;;;;;;;4.00;3.30;;;2.80;99.90;2.70;98292.00;;;;4893329;28;109704;-68
2024/02/09 03:27:46;;;;;;;2.37;2.10;;;3.00;99.90;2.70;98296.00;;;;4897883;28;92842;-69
2024/02/09 03:30:12;;;;;;;5.27;3.10;;;2.90;99.90;2.70;98291.00;;;;4894044;28;123489;-69
2024/02/09 03:32:44;;;;;;;6.13;3.23;;;3.00;99.90;2.70;98288.00;;;;4894429;28;103022;-70
2024/02/09 03:35:10;;;;;;;5.57;3.33;;;2.90;99.90;2.70;98289.00;;;;4891979;28;93055;-69
2024/02/09 03:37:35;;;;;;;2.50;2.30;;;2.80;99.90;2.70;98286.00;;;;4894028;28;92817;-67
2024/02/09 03:40:03;;;;;;;3.87;2.73;;;3.60;99.90;2.70;98285.00;;;;4893422;28;120826;-68
2024/02/09 03:42:29;;;;;;;3.93;2.80;;;2.90;99.90;2.80;98297.00;;;;4895019;28;93337;-69
2024/02/09 03:44:58;;;;;;;3.47;3.17;;;3.10;99.90;2.70;98288.00;;;;4895748;28;93074;-68
2024/02/09 03:47:26;;;;;;;3.30;3.00;;;3.00;99.90;2.80;98302.00;;;;4894600;28;109125;-67
2024/02/09 03:49:56;;;;;;;3.73;3.40;;;3.00;99.90;2.80;98301.00;;;;4894946;28;94697;-67
2024/02/09 03:52:23;;;;;;;5.13;2.97;;;3.00;99.90;2.80;98290.00;;;;4894355;28;94456;-67
2024/02/09 03:54:53;;;;;;;3.87;3.53;;;3.10;99.90;2.80;98288.00;;;;4900503;28;92680;-67
2024/02/09 03:57:19;;;;;;;4.23;3.10;;;3.00;99.90;2.80;98300.00;;;;4899818;28;92870;-68
2024/02/09 03:59:45;;;;;;;5.23;3.00;;;3.00;99.90;2.80;98289.00;;;;4895303;28;93309;-67
2024/02/09 04:02:11;;;;;;;3.97;2.87;;;3.00;99.90;2.80;98294.00;;;;4894667;28;93020;-67
2024/02/09 04:04:37;;;;;;;5.57;4.17;;;3.00;99.90;2.80;98296.00;;;;4909809;28;92976;-67
2024/02/09 04:07:08;;;;;;;5.17;3.03;;;3.00;99.90;2.80;98278.00;;;;4898318;28;92496;-66
2024/02/09 04:09:37;;;;;;;6.03;3.67;;;3.10;99.90;2.90;98285.00;;;;4900733;28;92911;-66
2024/02/09 04:12:04;;;;;;;3.60;3.03;;;3.50;99.90;2.90;98274.00;;;;4898703;28;97024;-67
2024/02/09 04:14:30;;;;;;;4.73;3.53;;;3.10;99.90;2.90;98273.00;;;;4895415;28;95553;-69
2024/02/09 04:16:57;;;;;;;4.50;2.63;;;4.00;99.90;2.90;98280.00;;;;4902899;28;93089;-67
2024/02/09 04:19:24;;;;;;;3.77;3.17;;;3.20;99.90;2.90;98269.00;;;;4897752;28;104473;-66
2024/02/09 04:21:51;;;;;;;3.43;3.13;;;3.20;99.90;2.90;98256.00;;;;4897443;28;116049;-65
2024/02/09 04:24:19;;;;;;;3.80;2.47;;;4.20;99.90;2.90;98260.00;;;;4897289;28;92940;-67
2024/02/09 04:26:48;;;;;;;6.07;3.47;;;3.10;99.90;2.90;98268.00;;;;4896705;28;93112;-66
2024/02/09 04:29:15;;;;;;;5.87;2.87;;;3.10;99.90;2.90;98258.00;;;;4898904;28;123126;-68
2024/02/09 04:31:43;;;;;;;3.37;2.93;;;3.20;99.90;2.90;98253.00;;;;4898814;28;93369;-68
2024/02/09 04:34:12;;;;;;;4.83;2.53;;;3.10;99.90;2.90;98250.00;;;;4894910;28;93116;-68
2024/02/09 04:36:39;;;;;;;3.20;2.90;;;3.20;99.90;3.00;98242.00;;;;4898147;28;92916;-66
2024/02/09 04:39:15;;;;;;;5.03;3.00;;;3.10;99.90;3.00;98246.00;;;;4897005;28;94638;-66
2024/02/09 04:41:47;;;;;;;5.43;3.30;;;3.20;99.90;3.00;98241.00;;;;4895808;28;93837;-68
2024/02/09 04:44:12;;;;;;;6.30;3.93;;;3.10;99.90;2.90;98225.00;;;;4894690;28;92967;-66
2024/02/09 04:46:44;;;;;;;4.50;2.77;;;3.20;99.90;3.00;98219.00;;;;4899579;28;108049;-67
2024/02/09 04:49:11;;;;;;;3.13;2.63;;;3.10;99.90;3.00;98210.00;;;;4896120;28;93610;-66
2024/02/09 04:51:44;;;;;;;2.93;2.30;;;3.00;99.90;2.90;98206.00;;;;4897603;28;93714;-67
2024/02/09 04:54:11;;;;;;;4.07;2.73;;;3.20;99.90;2.90;98206.00;;;;4894869;28;93128;-67
2024/02/09 04:56:40;;;;;;;4.40;2.43;;;3.20;99.90;3.00;98198.00;;;;4896457;28;92188;-67
2024/02/09 04:59:07;;;;;;;4.37;3.17;;;3.10;99.90;3.00;98204.00;;;;4895063;28;93269;-65
2024/02/09 05:01:38;;;;;;;5.70;2.47;;;3.20;99.90;3.00;98197.00;;;;4898034;28;94603;-66
2024/02/09 05:04:17;;;;;;;3.37;2.70;;;3.30;99.90;3.00;98205.00;;;;4896946;28;94072;-65
2024/02/09 05:06:42;;;;;;;3.67;2.43;;;3.20;99.90;3.00;98185.00;;;;4894193;28;92869;-67
2024/02/09 05:09:11;;;;;;;2.93;2.33;;;3.30;99.90;3.00;98195.00;;;;4895315;28;122865;-67
2024/02/09 05:11:38;;;;;;;3.33;2.83;;;3.20;99.90;3.10;98193.00;;;;4897379;28;93708;-66
2024/02/09 05:14:06;;;;;;;4.67;2.77;;;3.30;99.90;3.00;98182.00;;;;4895719;28;92876;-65
2024/02/09 05:16:33;;;;;;;2.20;2.00;;;3.20;99.90;3.10;98193.00;;;;4897907;28;98206;-65
2024/02/09 05:19:01;;;;;;;2.77;2.10;;;3.30;99.90;3.10;98186.00;;;;4896442;28;93277;-66
2024/02/09 05:21:26;;;;;;;3.47;2.77;;;3.20;99.90;3.10;98180.00;;;;4894621;28;93960;-67
2024/02/09 05:23:52;;;;;;;3.93;2.83;;;4.30;99.90;3.10;98183.00;;;;4907994;28;92963;-67
2024/02/09 05:26:24;;;;;;;4.10;3.57;;;3.30;99.90;3.10;98177.00;;;;4898345;28;109229;-67
2024/02/09 05:28:49;;;;;;;2.80;2.33;;;3.30;99.90;3.10;98173.00;;;;4888684;28;124106;-68
2024/02/09 05:31:18;;;;;;;4.20;3.37;;;3.30;99.90;3.20;98159.00;;;;4896880;28;119300;-68
2024/02/09 05:33:45;;;;;;;6.00;3.77;;;3.40;99.90;3.20;98169.00;;;;4897076;28;94638;-69
2024/02/09 05:36:22;;;;;;;5.00;3.77;;;3.30;99.90;3.20;98158.00;;;;4895211;28;93601;-69
2024/02/09 05:38:50;;;;;;;8.33;4.07;;;3.50;99.90;3.20;98162.00;;;;4890434;28;93340;-68
2024/02/09 05:41:16;;;;;;;4.20;3.03;;;3.50;99.90;3.20;98157.00;;;;4890802;28;93355;-68
2024/02/09 05:43:43;;;;;;;4.07;3.00;;;4.20;99.90;3.20;98167.00;;;;4895135;28;93435;-68
2024/02/09 05:46:09;;;;;;;4.87;3.53;;;3.50;99.90;3.20;98152.00;;;;4895030;28;92324;-69
2024/02/09 05:48:35;;;;;;;4.70;2.83;;;3.40;99.90;3.20;98149.00;;;;4890735;28;93246;-70
2024/02/09 05:51:02;;;;;;;3.33;2.77;;;3.60;99.90;3.20;98154.00;;;;4894663;28;92828;-69
2024/02/09 05:53:28;;;;;;;5.40;3.17;;;3.40;99.90;3.30;98149.00;;;;4894563;28;94201;-69
2024/02/09 05:55:56;;;;;;;6.63;3.93;;;3.50;99.90;3.30;98144.00;;;;4894930;28;93445;-68
2024/02/09 05:58:23;;;;;;;7.43;4.53;;;3.50;99.90;3.30;98140.00;;;;4892744;28;94142;-69
2024/02/09 06:00:52;;;;;;;5.97;4.40;;;3.50;99.90;3.30;98143.00;;;;4893394;28;94050;-69
2024/02/09 06:03:17;;;;;;;4.83;4.20;;;2.90;99.90;3.30;98142.00;;;;4896130;28;93103;-69
2024/02/09 06:05:43;;;;;;;5.50;4.17;;;3.50;99.90;3.40;98131.00;;;;4894628;28;93234;-68
2024/02/09 06:08:09;;;;;;;4.20;3.70;;;4.40;99.90;3.40;98138.00;;;;4887729;28;122498;-68
2024/02/09 06:10:36;;;;;;;7.20;4.07;;;3.70;99.90;3.40;98135.00;;;;4888166;28;93680;-68
2024/02/09 06:13:02;;;;;;;6.13;4.17;;;3.60;99.90;3.40;98125.00;;;;4888855;28;92997;-67
2024/02/09 06:15:28;;;;;;;6.97;4.73;;;3.60;99.90;3.40;98127.00;;;;4894483;28;93235;-68
2024/02/09 06:17:54;;;;;;;7.40;4.90;;;4.10;99.90;3.40;98126.00;;;;4893996;28;94189;-69
2024/02/09 06:20:22;;;;;;;9.77;7.93;;;3.60;99.90;3.40;98127.00;;;;4887265;28;123403;-69
2024/02/09 06:22:51;;;;;;;12.30;9.73;;;3.60;99.90;3.40;98124.00;;;;4891634;28;92826;-70
2024/02/09 06:25:17;;;;;;;6.93;5.50;;;3.70;99.90;3.50;98126.00;;;;4891537;28;97701;-70
2024/02/09 06:27:42;;;;;;;6.73;5.73;;;3.60;99.90;3.50;98124.00;;;;4893790;28;123170;-69
2024/02/09 06:30:10;;;;;;;5.50;4.10;;;3.80;99.90;3.50;98115.00;;;;4891290;28;121752;-68
2024/02/09 06:32:36;;;;;;;4.73;3.93;;;3.60;99.90;3.50;98122.00;;;;4888867;28;92994;-68
2024/02/09 06:35:02;;;;;;;7.53;4.70;;;3.80;99.90;3.60;98116.00;;;;4889195;28;98961;-68
2024/02/09 06:37:28;;;;;;;4.87;4.17;;;3.70;99.90;3.60;98120.00;;;;4886898;28;93193;-69
2024/02/09 06:39:54;;;;;;;6.47;4.20;;;3.90;99.90;3.60;98113.00;;;;4889098;28;94428;-68
2024/02/09 06:42:20;;;;;;;6.30;4.07;;;3.80;99.90;3.60;98121.00;;;;4891387;28;94189;-69
2024/02/09 06:44:46;;;;;;;6.03;4.20;;;3.80;99.90;3.70;98110.00;;;;4892529;28;93232;-69
2024/02/09 06:47:13;;;;;;;4.73;3.50;;;4.30;99.90;3.70;98108.00;;;;4891957;28;93102;-69
2024/02/09 06:49:43;;;;;;;7.97;6.33;;;3.80;99.90;3.70;98099.00;;;;4890783;28;93024;-69
2024/02/09 06:52:09;;;;;;;8.30;6.77;;;3.90;99.90;3.70;98112.00;;;;4888192;28;93115;-69
2024/02/09 06:54:35;;;;;;;7.13;5.43;;;3.90;99.90;3.80;98101.00;;;;4890607;28;93179;-69
2024/02/09 06:57:00;;;;;;;8.73;6.60;;;4.10;99.90;3.80;98107.00;;;;4893894;28;121504;-69
2024/02/09 06:59:27;;;;;;;11.73;5.33;;;4.00;99.90;3.80;98108.00;;;;4892170;28;93773;-69
2024/02/09 07:01:53;;;;;;;11.43;5.53;;;4.00;99.90;3.90;98103.00;;;;4892393;28;92924;-69
2024/02/09 07:04:19;;;;;;;5.93;5.10;;;4.00;99.90;3.90;98108.00;;;;4894273;28;92749;-68
2024/02/09 07:06:48;;;;;;;7.00;4.80;;;4.00;99.90;4.00;98104.00;;;;4906721;28;121696;-68
2024/02/09 07:09:18;;;;;;;8.90;4.93;;;4.10;99.90;4.00;98107.00;;;;4889491;28;94589;-69
2024/02/09 07:11:47;;;;;;;5.93;4.67;;;4.20;99.90;4.00;98107.00;;;;4891135;28;92862;-69
2024/02/09 07:14:14;;;;;;;7.80;5.23;;;4.20;99.90;4.00;98103.00;;;;4895157;28;92857;-69
2024/02/09 07:16:40;;;;;;;9.60;6.17;;;4.20;99.90;4.10;98108.00;;;;4894253;28;93964;-69
2024/02/09 07:19:09;;;;;;;7.40;5.60;;;5.20;99.90;4.10;98107.00;;;;4893875;28;94014;-69
2024/02/09 07:21:36;;;;;;;6.47;5.20;;;5.40;99.90;4.20;98105.00;;;;4892415;28;92974;-69
2024/02/09 07:24:04;;;;;;;8.47;5.57;;;4.30;99.90;4.20;98106.00;;;;4894852;28;95235;-70
2024/02/09 07:26:30;;;;;;;8.77;5.77;;;4.30;99.90;4.30;98109.00;;;;4890256;28;93823;-68
2024/02/09 07:28:57;;;;;;;8.27;5.03;;;4.40;99.90;4.30;98100.00;;;;4894591;28;93689;-68
2024/02/09 07:31:23;;;;;;;10.50;5.97;;;4.50;99.90;4.30;98102.00;;;;4896215;28;94053;-68
2024/02/09 07:33:50;;;;;;;8.27;6.13;;;5.40;99.90;4.40;98104.00;;;;4896350;28;93001;-68
2024/02/09 07:36:16;;;;;;;8.97;6.00;;;4.50;99.90;4.40;98097.00;;;;4896612;28;94093;-69
2024/02/09 07:38:42;;;;;;;9.37;6.07;;;4.50;99.90;4.40;98105.00;;;;4897640;28;93663;-69
2024/02/09 07:41:19;;;;;;;8.23;5.83;;;5.80;99.90;4.50;98094.00;;;;4894363;28;94332;-68
2024/02/09 07:43:46;;;;;;;7.43;6.43;;;5.10;99.90;4.50;98098.00;;;;4896225;28;93068;-69
2024/02/09 07:46:15;;;;;;;8.73;7.83;;;4.70;99.90;4.60;98089.00;;;;4908120;28;95025;-69
2024/02/09 07:48:44;;;;;;;11.87;8.30;;;5.20;99.90;4.60;98098.00;;;;4895201;28;93551;-69
2024/02/09 07:51:11;;;;;;;9.40;6.17;;;4.80;99.90;4.60;98089.00;;;;4897759;28;93227;-69
2024/02/09 07:53:36;;;;;;;8.43;6.20;;;4.80;99.90;4.70;98090.00;;;;4891957;28;104081;-69
2024/02/09 07:56:02;;;;;;;5.57;5.07;;;4.70;99.90;4.70;98086.00;;;;4894000;28;124608;-69
2024/02/09 07:58:28;;;;;;;7.20;5.27;;;4.90;99.90;4.80;98082.00;;;;4896284;28;95199;-69
2024/02/09 08:00:54;;;;;;;10.67;6.00;;;4.90;99.90;4.80;98081.00;;;;4893581;28;93038;-69
2024/02/09 08:03:20;;;;;;;12.97;6.80;;;4.90;99.90;4.90;98077.00;;;;4890238;28;108854;-69
2024/02/09 08:05:47;;;;;;;7.80;5.40;;;6.10;99.90;4.90;98077.00;;;;4894937;28;94388;-69
2024/02/09 08:08:13;;;;;;;5.47;4.47;;;5.80;99.90;5.10;98081.00;;;;4899076;28;95982;-68
2024/02/09 08:10:39;;;;;;;12.63;6.20;;;5.10;99.90;5.20;98078.00;;;;4894858;28;102688;-69
2024/02/09 08:13:05;;;;;;;10.53;5.57;;;5.30;99.90;5.30;98072.00;;;;4894952;28;92317;-71
2024/02/09 08:15:32;;;;;;;8.43;5.90;;;5.50;99.90;5.50;98075.00;;;;4896597;28;93349;-69
2024/02/09 08:17:57;;;;;;;12.50;6.30;;;6.40;99.90;5.80;98073.00;;;;4908028;28;110460;-70
2024/02/09 08:20:23;;;;;;;8.47;4.90;;;6.30;99.90;6.00;98080.00;;;;4888988;28;94240;-70
2024/02/09 08:22:50;;;;;;;6.70;4.93;;;6.00;99.90;6.20;98077.00;;;;4894767;28;107917;-69
2024/02/09 08:25:16;;;;;;;5.40;3.63;;;7.00;99.90;6.40;98074.00;;;;4888518;28;123968;-69
2024/02/09 08:27:42;;;;;;;7.07;3.33;;;7.20;99.90;6.60;98078.00;;;;4892849;28;113271;-70
2024/02/09 08:30:09;;;;;;;7.93;4.13;;;6.70;99.90;6.90;98073.00;;;;4889923;28;110327;-72
2024/02/09 08:32:37;;;;;;;9.13;4.13;;;6.90;99.90;7.10;98076.00;;;;4892819;28;93224;-71
2024/02/09 08:35:04;;;;;;;7.73;4.40;;;7.10;99.90;7.20;98085.00;;;;4888672;28;95987;-70
2024/02/09 08:37:29;;;;;;;4.70;2.67;;;7.30;99.90;7.40;98076.00;;;;4890476;28;92407;-71
2024/02/09 08:39:59;;;;;;;7.03;3.50;;;7.50;99.90;7.60;98092.00;;;;4888710;28;109868;-70
2024/02/09 08:42:26;;;;;;;6.83;3.90;;;7.60;99.90;7.70;98091.00;;;;4892857;28;94041;-71
2024/02/09 08:44:53;;;;;;;8.07;2.87;;;7.70;99.90;7.90;98091.00;;;;4892446;28;95471;-71
2024/02/09 08:47:21;;;;;;;3.97;2.80;;;7.90;99.90;8.10;98096.00;;;;4905086;28;93434;-71
2024/02/09 08:49:48;;;;;;;5.30;2.77;;;8.10;99.90;8.20;98097.00;;;;4893853;28;93916;-70
2024/02/09 08:52:13;;;;;;;3.60;2.67;;;8.20;99.90;8.30;98091.00;;;;4891353;28;93029;-71
2024/02/09 08:54:39;;;;;;;2.57;2.10;;;8.30;99.90;8.40;98092.00;;;;4893227;28;112617;-71
2024/02/09 08:57:05;;;;;;;5.43;2.37;;;8.50;99.90;8.50;98096.00;;;;4890188;28;107229;-70
2024/02/09 08:59:31;;;;;;;4.93;2.17;;;8.60;99.90;8.60;98085.00;;;;4893349;28;104064;-71
2024/02/09 09:02:00;;;;;;;4.90;2.60;;;8.60;99.90;8.60;98089.00;;;;4892528;28;93324;-70
2024/02/09 09:04:27;;;;;;;9.13;3.17;;;8.60;99.90;8.70;98089.00;;;;4894407;28;92733;-71
2024/02/09 09:06:53;;;;;;;3.93;1.97;;;8.70;99.90;8.80;98091.00;;;;4892886;28;93259;-70
2024/02/09 09:09:19;;;;;;;3.60;2.43;;;8.80;99.90;8.80;98087.00;;;;4877832;28;94204;-69
2024/02/09 09:11:44;;;;;;;4.17;2.13;;;8.90;99.90;8.90;98086.00;;;;4891060;28;95027;-70
2024/02/09 09:14:11;;;;;;;2.90;1.57;;;9.70;99.90;8.90;98087.00;;;;4904074;28;122132;-70
2024/02/09 09:16:40;;;;;;;4.63;2.30;;;9.00;99.90;9.00;98080.00;;;;4895826;28;93232;-69
2024/02/09 09:19:08;;;;;;;1.80;1.33;;;9.10;99.90;9.00;98080.00;;;;4890871;28;110504;-72
2024/02/09 09:21:38;;;;;;;2.27;1.27;;;9.10;99.90;9.00;98084.00;;;;4893632;28;93195;-70
2024/02/09 09:24:08;;;;;;;3.07;1.57;;;9.20;99.90;9.10;98078.00;;;;4892385;28;93415;-72
2024/02/09 09:26:34;;;;;;;4.00;1.30;;;9.20;99.90;9.10;98077.00;;;;4890117;28;93925;-70
2024/02/09 09:29:00;;;;;;;4.00;1.67;;;9.20;99.90;9.20;98081.00;;;;4892164;28;93085;-72
2024/02/09 09:31:27;;;;;;;2.83;1.23;;;9.30;99.90;9.20;98082.00;;;;4892217;28;93188;-71
2024/02/09 09:33:59;;;;;;;1.50;1.20;;;9.20;99.90;9.20;98087.00;;;;4889221;28;95262;-71
2024/02/09 09:36:31;;;;;;;1.47;1.10;;;9.40;99.90;9.30;98084.00;;;;4891916;28;94386;-71
2024/02/09 09:38:58;;;;;;;1.70;1.37;;;9.40;99.90;9.30;98076.00;;;;4894969;28;93176;-71
2024/02/09 09:41:24;;;;;;;8.07;1.50;;;9.40;99.90;9.40;98087.00;;;;4891223;28;104015;-71
2024/02/09 09:43:50;;;;;;;1.73;1.30;;;9.50;99.90;9.40;98081.00;;;;4891229;28;118011;-71
2024/02/09 09:46:18;;;;;;;3.23;1.30;;;9.40;99.90;9.50;98081.00;;;;4891441;28;122310;-69
2024/02/09 09:48:44;;;;;;;3.03;1.07;;;9.50;99.90;9.50;98076.00;;;;4892623;28;92956;-70
2024/02/09 09:51:12;;;;;;;2.23;1.30;;;9.60;99.90;9.60;98078.00;;;;4887717;28;108855;-69
2024/02/09 09:53:40;;;;;;;1.70;1.40;;;9.60;99.90;9.60;98077.00;;;;4890159;28;93061;-70
2024/02/09 09:56:10;;;;;;;3.97;1.70;;;9.70;99.90;9.60;98081.00;;;;4888874;28;94290;-72
2024/02/09 09:58:37;;;;;;;1.83;1.40;;;9.60;99.90;9.60;98087.00;;;;4890645;28;96665;-72
2024/02/09 10:01:08;;;;;;;6.23;1.80;;;9.70;99.90;9.60;98073.00;;;;4889643;28;93238;-73
2024/02/09 10:03:38;;;;;;;4.23;1.90;;;9.70;99.90;9.60;98075.00;;;;4906398;28;93074;-70
2024/02/09 10:06:04;;;;;;;4.40;1.70;;;9.80;99.90;9.60;98083.00;;;;4895938;28;93070;-70
2024/02/09 10:08:31;;;;;;;7.03;1.60;;;9.70;99.90;9.60;98073.00;;;;4889298;28;93735;-71
2024/02/09 10:10:58;;;;;;;2.30;1.33;;;9.80;99.90;9.60;98072.00;;;;4890164;28;93121;-71
2024/02/09 10:13:25;;;;;;;3.03;1.13;;;9.70;99.90;9.70;98073.00;;;;4890393;28;121903;-73
2024/02/09 10:15:55;;;;;;;1.37;1.17;;;9.70;99.90;9.70;98071.00;;;;4890079;28;94267;-69
2024/02/09 10:18:22;;;;;;;5.53;1.50;;;9.70;99.90;9.70;98079.00;;;;4888974;28;94207;-72
2024/02/09 10:20:48;;;;;;;3.30;1.23;;;9.80;99.90;9.70;98077.00;;;;4904526;28;93501;-71
2024/02/09 10:23:19;;;;;;;1.93;1.40;;;9.80;99.90;9.80;98077.00;;;;4889683;28;94707;-71
2024/02/09 10:25:45;;;;;;;3.87;1.33;;;9.70;99.90;9.80;98074.00;;;;4886712;28;123415;-70
2024/02/09 10:28:12;;;;;;;4.43;1.83;;;9.80;99.90;9.80;98079.00;;;;4891119;28;93591;-72
2024/02/09 10:30:38;;;;;;;1.73;1.23;;;9.90;99.90;9.80;98067.00;;;;4892275;28;92995;-72
2024/02/09 10:33:06;;;;;;;3.50;0.87;;;9.90;99.90;9.90;98069.00;;;;4887742;28;116743;-70
2024/02/09 10:35:35;;;;;;;5.03;1.40;;;9.90;99.90;9.90;98074.00;;;;4891705;28;94067;-70
2024/02/09 10:38:01;;;;;;;1.60;1.33;;;9.90;99.90;9.90;98070.00;;;;4891443;28;92954;-70
2024/02/09 10:40:27;;;;;;;3.37;1.87;;;9.90;99.90;9.90;98075.00;;;;4905684;28;92241;-72
2024/02/09 10:42:53;;;;;;;2.17;1.13;;;9.90;99.90;9.90;98064.00;;;;4894258;28;93649;-70
2024/02/09 10:45:20;;;;;;;2.33;0.80;;;10.00;99.90;9.90;98065.00;;;;4887891;28;94110;-71
2024/02/09 10:47:54;;;;;;;0.90;0.80;;;10.10;99.90;10.00;98075.00;;;;4891428;28;93776;-72
2024/02/09 10:50:21;;;;;;;3.07;2.13;;;10.00;99.90;10.00;98067.00;;;;4908344;28;92962;-70
2024/02/09 10:52:52;;;;;;;4.43;2.10;;;10.00;99.90;10.00;98062.00;;;;4890866;28;94613;-72
2024/02/09 10:55:22;;;;;;;1.23;0.97;;;10.10;99.90;10.00;98065.00;;;;4876737;28;94630;-70
2024/02/09 10:57:53;;;;;;;2.87;0.93;;;10.10;99.90;10.00;98062.00;;;;4895605;28;92743;-72
2024/02/09 11:00:20;;;;;;;1.07;1.03;;;10.10;99.90;10.00;98058.00;;;;4895261;28;93177;-68
2024/02/09 11:02:46;;;;;;;1.90;1.13;;;10.10;99.90;10.00;98052.00;;;;4891183;28;97359;-70
2024/02/09 11:05:16;;;;;;;2.30;1.27;;;10.00;99.90;10.00;98055.00;;;;4892659;28;109016;-71
2024/02/09 11:07:43;;;;;;;2.10;1.30;;;10.10;99.90;10.00;98050.00;;;;4894191;28;93499;-72
2024/02/09 11:10:10;;;;;;;6.67;1.20;;;10.10;99.90;10.00;98055.00;;;;4908168;28;93051;-68
2024/02/09 11:12:35;;;;;;;1.53;1.20;;;10.70;99.90;10.10;98054.00;;;;4894580;28;96684;-69
2024/02/09 11:15:13;;;;;;;1.30;1.07;;;10.10;99.90;10.10;98057.00;;;;4893751;28;124077;-72
2024/02/09 11:17:46;;;;;;;2.57;1.23;;;10.20;99.90;10.10;98049.00;;;;4892927;28;93112;-73
2024/02/09 11:20:13;;;;;;;2.20;1.37;;;10.20;99.90;10.10;98041.00;;;;4892074;28;93015;-69
2024/02/09 11:22:43;;;;;;;0.77;0.63;;;10.10;99.90;10.10;98044.00;;;;4893201;28;106630;-72
2024/02/09 11:25:11;;;;;;;3.53;1.77;;;10.40;99.90;10.20;98051.00;;;;4888839;28;93046;-72
2024/02/09 11:27:39;;;;;;;1.03;0.90;;;10.20;99.90;10.20;98043.00;;;;4898533;28;92829;-70
2024/02/09 11:30:06;;;;;;;1.30;0.93;;;10.20;99.90;10.20;98048.00;;;;4885738;28;92325;-72
2024/02/09 11:32:33;;;;;;;1.20;1.07;;;10.30;99.90;10.30;98037.00;;;;4884038;28;92948;-72
2024/02/09 11:34:59;;;;;;;3.47;1.20;;;10.30;99.90;10.30;98046.00;;;;4910713;28;93171;-72
2024/02/09 11:37:29;;;;;;;1.97;0.77;;;10.30;99.90;10.40;98046.00;;;;4891093;28;94066;-70
2024/02/09 11:39:54;;;;;;;0.93;0.70;;;10.40;99.90;10.40;98039.00;;;;4898500;28;93044;-70
2024/02/09 11:42:20;;;;;;;1.23;1.10;;;10.40;99.90;10.50;98042.00;;;;4892062;28;93296;-72
2024/02/09 11:44:46;;;;;;;1.40;0.87;;;10.60;99.90;10.60;98036.00;;;;4892535;28;121811;-71
2024/02/09 11:47:13;;;;;;;1.50;0.80;;;10.60;99.90;10.60;98049.00;;;;4893424;28;92970;-70
2024/02/09 11:49:42;;;;;;;0.90;0.83;;;10.60;99.90;10.60;98040.00;;;;4898288;28;93354;-70
2024/02/09 11:52:09;;;;;;;2.27;1.23;;;10.70;99.90;10.70;98028.00;;;;4896051;28;93012;-69
2024/02/09 11:54:35;;;;;;;2.57;0.80;;;10.70;99.90;10.70;98036.00;;;;4899027;28;93637;-70
2024/02/09 11:57:02;;;;;;;2.90;1.77;;;10.80;99.90;10.80;98034.00;;;;4891628;28;93197;-68
2024/02/09 11:59:31;;;;;;;1.83;1.00;;;10.80;99.90;10.90;98034.00;;;;4909100;28;92952;-68
2024/02/09 12:01:57;;;;;;;2.63;1.47;;;10.90;99.90;11.00;98026.00;;;;4904393;28;96696;-70
2024/02/09 12:04:24;;;;;;;6.83;2.27;;;11.00;99.90;11.00;98036.00;;;;4892098;28;123844;-69
2024/02/09 12:06:49;;;;;;;3.30;1.43;;;11.10;99.90;11.00;98029.00;;;;4906402;28;93157;-70
2024/02/09 12:09:15;;;;;;;1.27;1.10;;;11.10;99.90;11.10;98038.00;;;;4906002;28;92900;-71
2024/02/09 12:11:47;;;;;;;3.43;0.87;;;11.20;99.90;11.10;98027.00;;;;4875434;28;94815;-70
2024/02/09 12:14:14;;;;;;;2.53;1.37;;;11.70;99.90;11.20;98026.00;;;;4890818;28;93076;-70
2024/02/09 12:16:40;;;;;;;1.30;1.13;;;11.20;99.90;11.20;98036.00;;;;4892948;28;93310;-71
2024/02/09 12:19:05;;;;;;;5.03;1.40;;;11.30;99.90;11.30;98031.00;;;;4893518;28;92240;-71
2024/02/09 12:21:32;;;;;;;4.70;2.00;;;11.30;99.90;11.30;98033.00;;;;4893348;28;123146;-70
2024/02/09 12:23:57;;;;;;;6.97;2.80;;;11.40;99.90;11.40;98033.00;;;;4905298;28;93895;-68
2024/02/09 12:26:24;;;;;;;9.90;5.93;;;11.40;99.90;11.40;98040.00;;;;4892183;28;109489;-68
2024/02/09 12:28:50;;;;;;;10.10;5.50;;;11.40;99.90;11.50;98032.00;;;;4894730;28;93001;-69
2024/02/09 12:31:16;;;;;;;15.47;6.07;;;11.50;99.90;11.50;98028.00;;;;4904442;28;120457;-69
2024/02/09 12:33:50;;;;;;;6.70;4.10;;;11.60;99.90;11.60;98030.00;;;;4895323;28;93424;-69
2024/02/09 12:36:21;;;;;;;10.00;2.73;;;11.60;99.90;11.70;98027.00;;;;4892633;28;92683;-68
2024/02/09 12:38:58;;;;;;;2.57;2.17;;;11.70;99.90;11.70;98040.00;;;;4891003;28;93095;-68
2024/02/09 12:41:27;;;;;;;1.73;1.37;;;11.80;99.90;11.80;98035.00;;;;4892024;28;93549;-67
2024/02/09 12:44:03;;;;;;;5.80;1.83;;;11.80;99.90;11.80;98039.00;;;;4892629;28;92393;-66
2024/02/09 12:46:29;;;;;;;7.67;1.73;;;11.90;99.90;11.90;98039.00;;;;4893997;28;92836;-67
2024/02/09 12:48:57;;;;;;;1.50;1.40;;;11.90;99.90;11.90;98037.00;;;;4894002;28;94154;-67
2024/02/09 12:51:24;;;;;;;2.73;1.40;;;11.90;99.90;11.90;98036.00;;;;4891853;28;94571;-67
2024/02/09 12:53:50;;;;;;;1.87;1.07;;;12.00;99.90;11.90;98034.00;;;;4891609;28;93935;-68